createdAt,value
2019-03-19T00:01:51.823Z,99.90
2019-03-19T00:04:22.328Z,99.90
2019-03-19T00:06:52.540Z,99.90
2019-03-19T00:09:22.773Z,99.90
2019-03-19T00:11:52.968Z,99.90
2019-03-19T00:14:23.102Z,99.90
2019-03-19T00:16:53.604Z,99.90
2019-03-19T00:19:23.774Z,99.90
2019-03-19T00:21:54.233Z,99.90
2019-03-19T00:24:24.484Z,99.90
2019-03-19T00:26:55.406Z,99.90
2019-03-19T00:29:25.973Z,99.90
2019-03-19T00:31:56.118Z,99.90
2019-03-19T00:34:26.680Z,99.90
2019-03-19T00:36:56.837Z,99.90
2019-03-19T00:39:27.014Z,99.90
2019-03-19T00:41:57.235Z,99.90
2019-03-19T00:44:27.420Z,99.90
2019-03-19T00:46:57.995Z,99.90
2019-03-19T00:49:28.538Z,99.90
2019-03-19T00:51:59.154Z,99.90
2019-03-19T00:54:29.424Z,99.90
2019-03-19T00:57:00.003Z,99.90
2019-03-19T00:59:30.283Z,99.90
2019-03-19T01:02:00.484Z,99.90
2019-03-19T01:04:31.577Z,99.90
2019-03-19T01:07:01.877Z,99.90
2019-03-19T01:09:32.485Z,99.90
2019-03-19T01:12:02.671Z,99.90
2019-03-19T01:14:32.915Z,99.90
2019-03-19T01:17:03.788Z,99.90
2019-03-19T01:19:33.994Z,99.90
2019-03-19T01:22:04.507Z,99.90
2019-03-19T01:24:35.007Z,99.90
2019-03-19T01:27:05.577Z,99.90
2019-03-19T01:29:35.750Z,99.90
2019-03-19T01:32:05.986Z,99.90
2019-03-19T01:34:36.480Z,99.90
2019-03-19T01:37:06.841Z,99.90
2019-03-19T01:39:37.040Z,99.90
2019-03-19T01:42:07.285Z,99.90
2019-03-19T01:44:37.502Z,99.90
2019-03-19T01:47:07.636Z,99.90
2019-03-19T01:49:38.122Z,99.90
2019-03-19T01:52:08.585Z,99.90
2019-03-19T01:54:38.748Z,99.90
2019-03-19T01:57:08.966Z,99.90
2019-03-19T01:59:39.364Z,99.90
2019-03-19T02:02:09.570Z,99.90
2019-03-19T02:04:39.755Z,99.90
2019-03-19T02:07:09.964Z,99.90
2019-03-19T02:09:40.294Z,99.90
2019-03-19T02:12:10.504Z,99.90
2019-03-19T02:14:40.695Z,99.90
2019-03-19T02:17:12.697Z,99.90
2019-03-19T02:19:43.908Z,99.90
2019-03-19T02:22:14.449Z,99.90
2019-03-19T02:24:44.710Z,99.90
2019-03-19T02:27:15.154Z,99.90
2019-03-19T02:29:45.398Z,99.90
2019-03-19T02:32:15.579Z,99.90
2019-03-19T02:34:45.763Z,99.90
2019-03-19T02:37:16.306Z,99.90
2019-03-19T02:39:46.879Z,99.90
2019-03-19T02:42:17.421Z,99.90
2019-03-19T02:44:47.934Z,99.90
2019-03-19T02:47:18.136Z,99.90
2019-03-19T02:49:48.404Z,99.90
2019-03-19T02:52:18.573Z,99.90
2019-03-19T02:54:48.800Z,99.90
2019-03-19T02:57:19.066Z,99.90
2019-03-19T02:59:49.579Z,99.90
2019-03-19T03:02:19.741Z,99.90
2019-03-19T03:04:49.987Z,99.90
2019-03-19T03:07:20.512Z,99.90
2019-03-19T03:09:50.736Z,99.90
2019-03-19T03:12:21.247Z,99.90
2019-03-19T03:14:51.378Z,99.90
2019-03-19T03:17:21.567Z,99.90
2019-03-19T03:19:51.678Z,99.90
2019-03-19T03:22:22.173Z,99.90
2019-03-19T03:24:52.334Z,99.90
2019-03-19T03:27:22.535Z,99.90
2019-03-19T03:29:52.681Z,99.90
2019-03-19T03:32:22.901Z,99.90
2019-03-19T03:34:53.548Z,99.90
2019-03-19T03:37:23.748Z,99.90
2019-03-19T03:39:53.978Z,99.90
2019-03-19T03:42:24.154Z,99.90
2019-03-19T03:44:54.364Z,99.90
2019-03-19T03:47:24.459Z,99.90
2019-03-19T03:49:54.985Z,99.90
2019-03-19T03:52:25.142Z,99.90
2019-03-19T03:54:55.377Z,99.90
2019-03-19T03:57:25.609Z,99.90
2019-03-19T03:59:56.177Z,99.90
2019-03-19T04:02:26.385Z,99.90
2019-03-19T04:04:56.646Z,99.90
2019-03-19T04:07:27.115Z,99.90
2019-03-19T04:09:57.375Z,99.90
2019-03-19T04:12:27.867Z,99.90
2019-03-19T04:14:58.062Z,99.90
2019-03-19T04:17:28.507Z,99.90
2019-03-19T04:19:58.692Z,99.90
2019-03-19T04:22:28.888Z,99.90
2019-03-19T04:24:59.075Z,99.90
2019-03-19T04:27:29.166Z,99.90
2019-03-19T04:29:59.673Z,99.90
2019-03-19T04:32:29.858Z,99.90
2019-03-19T04:35:00.435Z,99.90
2019-03-19T04:37:30.600Z,99.90
2019-03-19T04:40:01.262Z,99.90
2019-03-19T04:42:31.446Z,99.90
2019-03-19T04:45:01.974Z,99.90
2019-03-19T04:47:32.170Z,99.90
2019-03-19T04:50:02.337Z,99.90
2019-03-19T04:52:32.551Z,99.90
2019-03-19T04:55:03.040Z,99.90
2019-03-19T04:57:33.258Z,99.90
2019-03-19T05:00:03.476Z,99.90
2019-03-19T05:02:33.661Z,99.90
2019-03-19T05:05:05.113Z,99.90
2019-03-19T05:07:35.330Z,99.90
2019-03-19T05:10:06.532Z,99.90
2019-03-19T05:12:36.718Z,99.90
2019-03-19T05:15:07.426Z,99.90
2019-03-19T05:17:37.629Z,99.90
2019-03-19T05:20:08.555Z,99.90
2019-03-19T05:22:38.787Z,99.90
2019-03-19T05:25:09.743Z,99.90
2019-03-19T05:27:40.057Z,99.90
2019-03-19T05:30:11.591Z,99.90
2019-03-19T05:32:41.799Z,99.90
2019-03-19T05:35:12.295Z,99.90
2019-03-19T05:37:42.453Z,99.90
2019-03-19T05:40:13.203Z,99.90
2019-03-19T05:42:43.404Z,99.90
2019-03-19T05:45:14.031Z,99.90
2019-03-19T05:47:44.389Z,99.90
2019-03-19T05:50:14.627Z,99.90
2019-03-19T05:52:44.832Z,99.90
2019-03-19T05:55:14.952Z,99.90
2019-03-19T05:57:49.792Z,99.90
2019-03-19T06:00:17.673Z,99.90
2019-03-19T06:02:48.256Z,99.90
2019-03-19T06:05:20.932Z,99.90
2019-03-19T06:07:50.320Z,99.90
2019-03-19T06:10:20.571Z,99.90
2019-03-19T06:12:51.067Z,99.90
2019-03-19T06:15:21.564Z,99.90
2019-03-19T06:17:51.760Z,99.90
2019-03-19T06:20:21.980Z,99.90
2019-03-19T06:22:52.204Z,99.90
2019-03-19T06:25:22.367Z,99.90
2019-03-19T06:28:00.389Z,99.90
2019-03-19T06:30:25.018Z,99.90
2019-03-19T06:32:55.250Z,99.90
2019-03-19T06:35:25.856Z,99.90
2019-03-19T06:37:56.020Z,99.90
2019-03-19T06:40:26.214Z,99.90
2019-03-19T06:42:56.715Z,99.90
2019-03-19T06:45:26.934Z,99.90
2019-03-19T06:47:57.091Z,99.90
2019-03-19T06:50:28.226Z,99.90
2019-03-19T06:52:58.630Z,99.90
2019-03-19T06:55:28.812Z,99.90
2019-03-19T06:57:59.069Z,99.90
2019-03-19T07:00:29.887Z,99.90
2019-03-19T07:03:00.435Z,99.90
2019-03-19T07:05:30.691Z,99.90
2019-03-19T07:08:00.875Z,99.90
2019-03-19T07:10:31.152Z,99.90
2019-03-19T07:13:01.398Z,99.90
2019-03-19T07:15:31.924Z,99.90
2019-03-19T07:18:02.155Z,99.90
2019-03-19T07:20:32.380Z,99.90
2019-03-19T07:23:03.205Z,99.90
2019-03-19T07:25:33.417Z,99.90
2019-03-19T07:28:03.621Z,99.90
2019-03-19T07:30:33.831Z,99.90
2019-03-19T07:33:04.064Z,99.90
2019-03-19T07:35:34.271Z,99.90
2019-03-19T07:38:04.614Z,99.90
2019-03-19T07:40:34.881Z,99.90
2019-03-19T07:43:05.557Z,99.90
2019-03-19T07:45:35.761Z,99.90
2019-03-19T07:48:05.963Z,99.90
2019-03-19T07:50:36.464Z,99.90
2019-03-19T07:53:06.694Z,99.90
2019-03-19T07:55:36.877Z,99.90
2019-03-19T07:58:07.104Z,99.90
2019-03-19T08:00:37.302Z,99.90
2019-03-19T08:03:15.605Z,99.90
2019-03-19T08:05:39.721Z,99.90
2019-03-19T08:08:09.990Z,99.90
2019-03-19T08:10:40.228Z,99.90
2019-03-19T08:13:10.424Z,99.90
2019-03-19T08:15:40.612Z,99.90
2019-03-19T08:18:10.836Z,99.90
2019-03-19T08:20:40.999Z,99.90
2019-03-19T08:23:11.418Z,99.90
2019-03-19T08:25:41.678Z,99.90
2019-03-19T08:28:11.874Z,99.90
2019-03-19T08:30:42.144Z,99.90
2019-03-19T08:33:12.768Z,99.90
2019-03-19T08:35:42.916Z,99.90
2019-03-19T08:38:13.153Z,99.90
2019-03-19T08:40:43.353Z,99.90
2019-03-19T08:43:13.554Z,99.90
2019-03-19T08:45:43.791Z,99.90
2019-03-19T08:48:13.932Z,99.90
2019-03-19T08:50:44.123Z,99.90
2019-03-19T08:53:15.057Z,99.90
2019-03-19T08:55:45.274Z,99.90
2019-03-19T08:58:15.492Z,99.90
2019-03-19T09:00:45.739Z,99.90
2019-03-19T09:03:15.959Z,99.90
2019-03-19T09:05:46.193Z,99.90
2019-03-19T09:08:16.842Z,99.90
2019-03-19T09:10:46.973Z,99.90
2019-03-19T09:13:17.570Z,99.90
2019-03-19T09:15:47.820Z,99.90
2019-03-19T09:18:18.532Z,99.90
2019-03-19T09:20:48.789Z,99.90
2019-03-19T09:23:19.404Z,99.90
2019-03-19T09:25:49.600Z,99.90
2019-03-19T09:28:19.825Z,99.90
2019-03-19T09:30:49.962Z,99.90
2019-03-19T09:33:20.190Z,99.90
2019-03-19T09:35:50.393Z,99.90
2019-03-19T09:38:20.631Z,99.90
2019-03-19T09:40:50.887Z,99.90
2019-03-19T09:43:21.447Z,99.90
2019-03-19T09:45:51.701Z,99.90
2019-03-19T09:48:21.968Z,99.90
2019-03-19T09:50:52.459Z,99.90
2019-03-19T09:53:22.635Z,99.90
2019-03-19T09:55:53.272Z,99.90
2019-03-19T09:58:23.471Z,99.90
2019-03-19T10:00:53.981Z,99.90
2019-03-19T10:03:24.483Z,99.90
2019-03-19T10:05:54.931Z,99.90
2019-03-19T10:08:25.176Z,99.90
2019-03-19T10:10:55.385Z,99.90
2019-03-19T10:13:25.551Z,99.90
2019-03-19T10:15:55.775Z,99.90
2019-03-19T10:18:25.945Z,99.90
2019-03-19T10:20:56.467Z,99.90
2019-03-19T10:23:26.739Z,99.90
2019-03-19T10:25:57.001Z,99.90
2019-03-19T10:28:27.204Z,99.90
2019-03-19T10:30:57.671Z,99.90
2019-03-19T10:33:28.168Z,99.90
2019-03-19T10:35:58.322Z,99.90
2019-03-19T10:38:28.544Z,99.90
2019-03-19T10:40:58.929Z,99.90
2019-03-19T10:43:29.200Z,99.90
2019-03-19T10:45:59.689Z,99.90
2019-03-19T10:48:29.930Z,99.90
2019-03-19T10:51:00.122Z,99.90
2019-03-19T10:53:30.362Z,99.90
2019-03-19T10:56:00.482Z,99.90
2019-03-19T10:58:30.670Z,99.90
2019-03-19T11:01:00.828Z,99.90
2019-03-19T11:03:31.112Z,99.90
2019-03-19T11:06:01.339Z,99.90
2019-03-19T11:08:31.592Z,99.90
2019-03-19T11:11:03.613Z,99.90
2019-03-19T11:13:34.444Z,99.90
2019-03-19T11:16:04.678Z,99.90
2019-03-19T11:18:34.899Z,99.90
2019-03-19T11:21:07.420Z,99.90
2019-03-19T11:23:37.620Z,99.90
2019-03-19T11:26:07.870Z,99.90
2019-03-19T11:28:38.375Z,99.20
2019-03-19T11:31:08.595Z,99.90
2019-03-19T11:33:38.835Z,99.60
2019-03-19T11:36:09.047Z,99.20
2019-03-19T11:38:39.293Z,96.70
2019-03-19T11:41:09.787Z,98.50
2019-03-19T11:43:40.019Z,97.70
2019-03-19T11:46:10.228Z,96.90
2019-03-19T11:48:40.454Z,96.70
2019-03-19T11:51:11.131Z,97.00
2019-03-19T11:53:41.366Z,97.50
2019-03-19T11:56:11.617Z,99.10
2019-03-19T11:58:41.831Z,99.20
2019-03-19T12:01:12.027Z,99.90
2019-03-19T12:03:42.294Z,99.90
2019-03-19T12:06:12.521Z,99.90
2019-03-19T12:08:43.024Z,99.90
2019-03-19T12:11:13.244Z,99.90
2019-03-19T12:13:43.853Z,99.90
2019-03-19T12:16:13.972Z,99.90
2019-03-19T12:18:44.193Z,99.90
2019-03-19T12:21:14.744Z,98.60
2019-03-19T12:23:45.774Z,97.20
2019-03-19T12:26:15.978Z,96.80
2019-03-19T12:28:46.165Z,95.10
2019-03-19T12:31:16.420Z,94.50
2019-03-19T12:33:59.620Z,94.40
2019-03-19T12:36:29.881Z,94.80
2019-03-19T12:39:00.108Z,96.10
2019-03-19T12:41:30.348Z,96.70
2019-03-19T12:44:00.894Z,98.00
2019-03-19T12:46:31.120Z,94.10
2019-03-19T12:49:01.628Z,95.80
2019-03-19T12:51:31.863Z,95.20
2019-03-19T12:54:02.052Z,93.70
2019-03-19T12:56:32.265Z,97.20
2019-03-19T12:59:02.463Z,97.20
2019-03-19T13:01:32.830Z,96.80
2019-03-19T13:04:03.078Z,96.90
2019-03-19T13:06:33.318Z,95.00
2019-03-19T13:09:05.801Z,95.60
2019-03-19T13:11:36.401Z,97.40
2019-03-19T13:14:06.716Z,97.90
2019-03-19T13:16:36.854Z,97.70
2019-03-19T13:19:07.340Z,94.30
2019-03-19T13:21:37.577Z,95.60
2019-03-19T13:24:07.742Z,97.90
2019-03-19T13:26:38.010Z,95.80
2019-03-19T13:29:08.306Z,95.40
2019-03-19T13:31:38.509Z,97.30
2019-03-19T13:34:09.059Z,96.80
2019-03-19T13:36:39.305Z,98.60
2019-03-19T13:39:09.877Z,98.10
2019-03-19T13:41:40.116Z,95.20
2019-03-19T13:44:11.389Z,94.40
2019-03-19T13:46:41.655Z,95.60
2019-03-19T13:49:12.227Z,95.20
2019-03-19T13:51:42.506Z,96.00
2019-03-19T13:54:12.677Z,98.70
2019-03-19T13:56:42.900Z,96.40
2019-03-19T13:59:13.135Z,97.50
2019-03-19T14:01:43.662Z,97.60
2019-03-19T14:04:13.865Z,95.60
2019-03-19T14:06:44.013Z,97.40
2019-03-19T14:09:14.273Z,95.60
2019-03-19T14:11:45.157Z,98.00
2019-03-19T14:14:15.445Z,96.10
2019-03-19T14:16:45.674Z,97.10
2019-03-19T14:19:16.191Z,96.70
2019-03-19T14:21:46.387Z,98.40
2019-03-19T14:24:16.634Z,99.10
2019-03-19T14:26:46.844Z,99.90
2019-03-19T14:29:17.019Z,99.90
2019-03-19T14:31:47.174Z,99.90
2019-03-19T14:34:17.651Z,99.90
2019-03-19T14:36:47.911Z,99.90
2019-03-19T14:39:18.147Z,99.90
2019-03-19T14:41:48.375Z,99.90
2019-03-19T14:44:18.874Z,99.90
2019-03-19T14:46:49.085Z,99.90
2019-03-19T14:49:19.311Z,99.90
2019-03-19T14:51:49.851Z,99.90
2019-03-19T14:54:20.434Z,99.90
2019-03-19T14:56:50.656Z,99.90
2019-03-19T14:59:20.950Z,99.90
2019-03-19T15:01:51.140Z,99.90
2019-03-19T15:04:21.468Z,99.90
2019-03-19T15:06:51.649Z,99.90
2019-03-19T15:09:22.174Z,99.90
2019-03-19T15:11:52.404Z,99.90
2019-03-19T15:14:23.149Z,99.90
2019-03-19T15:17:04.235Z,99.90
2019-03-19T15:19:25.272Z,99.90
2019-03-19T15:21:55.447Z,99.90
2019-03-19T15:24:25.725Z,99.90
2019-03-19T15:26:55.913Z,99.90
2019-03-19T15:29:26.096Z,99.90
2019-03-19T15:31:56.366Z,99.90
2019-03-19T15:34:26.582Z,99.90
2019-03-19T15:36:56.815Z,99.90
2019-03-19T15:39:27.009Z,99.90
2019-03-19T15:41:57.177Z,99.90
2019-03-19T15:44:27.395Z,99.90
2019-03-19T15:46:57.624Z,99.90
2019-03-19T15:49:37.862Z,99.90
2019-03-19T15:51:59.706Z,99.90
2019-03-19T15:54:29.919Z,99.90
2019-03-19T15:57:00.504Z,99.90
2019-03-19T15:59:30.735Z,99.90
2019-03-19T16:02:00.976Z,99.90
2019-03-19T16:04:31.117Z,99.90
2019-03-19T16:07:01.691Z,99.90
2019-03-19T16:09:31.940Z,99.90
2019-03-19T16:12:02.157Z,99.90
2019-03-19T16:14:32.471Z,99.90
2019-03-19T16:17:02.725Z,99.90
2019-03-19T16:19:32.881Z,99.90
2019-03-19T16:22:03.129Z,99.90
2019-03-19T16:24:33.651Z,99.90
2019-03-19T16:27:04.352Z,99.90
2019-03-19T16:29:35.495Z,99.90
2019-03-19T16:32:05.715Z,99.90
2019-03-19T16:34:36.361Z,99.90
2019-03-19T16:37:06.589Z,99.90
2019-03-19T16:39:37.087Z,99.90
2019-03-19T16:42:07.383Z,99.90
2019-03-19T16:44:38.011Z,99.90
2019-03-19T16:47:07.449Z,99.90
2019-03-19T16:49:37.710Z,99.90
2019-03-19T16:52:07.903Z,99.90
2019-03-19T16:54:38.559Z,99.90
2019-03-19T16:57:09.081Z,99.90
2019-03-19T16:59:39.254Z,99.90
2019-03-19T17:02:09.508Z,99.90
2019-03-19T17:04:39.764Z,99.90
2019-03-19T17:07:10.418Z,99.90
2019-03-19T17:09:40.674Z,99.90
2019-03-19T17:12:11.338Z,99.90
2019-03-19T17:14:41.642Z,99.90
2019-03-19T17:17:11.829Z,99.90
2019-03-19T17:19:42.074Z,99.90
2019-03-19T17:22:12.300Z,99.90
2019-03-19T17:24:42.516Z,99.90
2019-03-19T17:27:12.758Z,99.90
2019-03-19T17:29:43.301Z,99.90
2019-03-19T17:32:13.940Z,99.90
2019-03-19T17:34:44.951Z,99.90
2019-03-19T17:37:15.214Z,99.90
2019-03-19T17:39:45.413Z,99.90
2019-03-19T17:42:15.990Z,99.90
2019-03-19T17:44:46.203Z,99.90
2019-03-19T17:47:16.742Z,99.90
2019-03-19T17:49:47.267Z,99.90
2019-03-19T17:52:17.500Z,99.90
2019-03-19T17:54:47.733Z,99.90
2019-03-19T17:57:18.257Z,99.90
2019-03-19T17:59:48.475Z,99.90
2019-03-19T18:02:24.067Z,99.90
2019-03-19T18:04:51.013Z,99.90
2019-03-19T18:07:21.179Z,99.90
2019-03-19T18:09:51.974Z,99.90
2019-03-19T18:12:22.149Z,99.90
2019-03-19T18:14:52.685Z,99.90
2019-03-19T18:17:23.302Z,99.90
2019-03-19T18:19:53.521Z,99.90
2019-03-19T18:22:23.681Z,99.90
2019-03-19T18:24:53.870Z,99.90
2019-03-19T18:27:24.328Z,99.90
2019-03-19T18:29:55.617Z,99.90
2019-03-19T18:32:34.763Z,99.90
2019-03-19T18:34:57.672Z,99.90
2019-03-19T18:37:28.171Z,99.90
2019-03-19T18:39:58.303Z,99.90
2019-03-19T18:42:29.162Z,99.90
2019-03-19T18:44:59.360Z,99.90
2019-03-19T18:47:29.532Z,99.90
2019-03-19T18:49:59.714Z,99.90
2019-03-19T18:52:29.925Z,99.90
2019-03-19T18:55:00.512Z,99.90
2019-03-19T18:57:30.734Z,99.90
2019-03-19T19:00:01.188Z,99.90
2019-03-19T19:02:31.393Z,99.90
2019-03-19T19:05:01.593Z,99.90
2019-03-19T19:07:31.778Z,99.90
2019-03-19T19:10:01.965Z,99.90
2019-03-19T19:12:32.206Z,99.90
2019-03-19T19:15:02.704Z,99.90
2019-03-19T19:17:33.360Z,99.90
2019-03-19T19:20:03.573Z,99.90
2019-03-19T19:22:33.830Z,99.90
2019-03-19T19:25:04.766Z,99.90
2019-03-19T19:27:35.353Z,99.90
2019-03-19T19:30:06.500Z,99.90
2019-03-19T19:32:36.992Z,99.90
2019-03-19T19:35:07.276Z,99.90
2019-03-19T19:37:37.516Z,99.90
2019-03-19T19:40:09.247Z,99.90
2019-03-19T19:42:39.495Z,99.90
2019-03-19T19:45:10.082Z,99.90
2019-03-19T19:47:40.216Z,99.90
2019-03-19T19:50:12.070Z,99.90
2019-03-19T19:52:42.251Z,99.90
2019-03-19T19:55:12.617Z,99.90
2019-03-19T19:57:42.822Z,99.90
2019-03-19T20:00:15.368Z,99.90
2019-03-19T20:02:46.553Z,99.90
2019-03-19T20:05:17.001Z,99.90
2019-03-19T20:07:47.570Z,99.90
2019-03-19T20:10:18.212Z,99.90
2019-03-19T20:12:48.447Z,99.90
2019-03-19T20:15:18.643Z,99.90
2019-03-19T20:17:48.791Z,99.90
2019-03-19T20:20:19.099Z,99.90
2019-03-19T20:22:49.628Z,99.90
2019-03-19T20:25:20.467Z,99.90
2019-03-19T20:27:50.999Z,99.90
2019-03-19T20:30:21.612Z,99.90
2019-03-19T20:32:51.871Z,99.90
2019-03-19T20:35:22.356Z,99.90
2019-03-19T20:37:52.533Z,99.90
2019-03-19T20:40:22.723Z,99.90
2019-03-19T20:42:52.909Z,99.90
2019-03-19T20:45:23.258Z,99.90
2019-03-19T20:47:53.792Z,99.90
2019-03-19T20:50:26.448Z,99.90
2019-03-19T20:52:56.651Z,99.90
2019-03-19T20:55:26.803Z,99.90
2019-03-19T20:57:57.071Z,99.90
2019-03-19T21:00:27.671Z,99.90
2019-03-19T21:02:58.551Z,99.90
2019-03-19T21:05:28.659Z,99.90
2019-03-19T21:07:58.859Z,99.90
2019-03-19T21:10:29.065Z,99.90
2019-03-19T21:12:59.268Z,99.90
2019-03-19T21:15:29.497Z,99.90
2019-03-19T21:17:59.769Z,99.90
2019-03-19T21:20:30.000Z,99.90
2019-03-19T21:23:00.224Z,99.90
2019-03-19T21:25:30.799Z,99.90
2019-03-19T21:28:01.346Z,99.90
2019-03-19T21:30:31.516Z,99.90
2019-03-19T21:33:01.723Z,99.90
2019-03-19T21:35:31.922Z,99.90
2019-03-19T21:38:02.053Z,99.90
2019-03-19T21:40:32.860Z,99.90
2019-03-19T21:43:03.043Z,99.90
2019-03-19T21:45:33.254Z,99.90
2019-03-19T21:48:03.452Z,99.90
2019-03-19T21:50:33.574Z,99.90
2019-03-19T21:53:04.764Z,99.90
2019-03-19T21:55:35.264Z,99.90
2019-03-19T21:58:05.462Z,99.90
2019-03-19T22:00:35.654Z,99.90
2019-03-19T22:03:06.021Z,99.90
2019-03-19T22:05:36.623Z,99.90
2019-03-19T22:08:06.787Z,99.90
2019-03-19T22:10:36.977Z,99.90
2019-03-19T22:13:07.554Z,99.90
2019-03-19T22:15:37.752Z,99.90
2019-03-19T22:18:07.980Z,99.90
2019-03-19T22:20:38.096Z,99.90
2019-03-19T22:23:09.280Z,99.90
2019-03-19T22:25:39.817Z,99.90
2019-03-19T22:28:10.063Z,99.90
2019-03-19T22:30:40.631Z,99.90
2019-03-19T22:33:11.077Z,99.90
2019-03-19T22:35:41.556Z,99.90
2019-03-19T22:38:12.476Z,99.90
2019-03-19T22:40:43.028Z,99.90
2019-03-19T22:43:13.099Z,99.90
2019-03-19T22:45:43.371Z,99.90
2019-03-19T22:48:13.508Z,99.90
2019-03-19T22:50:44.314Z,99.90
2019-03-19T22:53:15.162Z,99.90
2019-03-19T22:55:45.358Z,99.90
2019-03-19T22:58:15.569Z,99.90
2019-03-19T23:00:47.555Z,99.90
2019-03-19T23:03:17.626Z,99.90
2019-03-19T23:05:48.367Z,99.90
2019-03-19T23:08:18.829Z,99.90
2019-03-19T23:10:49.002Z,99.90
2019-03-19T23:13:19.201Z,99.90
2019-03-19T23:15:49.360Z,99.90
2019-03-19T23:18:19.552Z,99.90
2019-03-19T23:20:49.728Z,99.90
2019-03-19T23:23:20.244Z,99.90
2019-03-19T23:25:50.406Z,99.90
2019-03-19T23:28:20.984Z,99.90
2019-03-19T23:30:51.713Z,99.90
2019-03-19T23:33:22.248Z,99.90
2019-03-19T23:35:52.406Z,99.90
2019-03-19T23:38:22.600Z,99.90
2019-03-19T23:40:52.808Z,99.90
2019-03-19T23:43:22.991Z,99.90
2019-03-19T23:45:53.092Z,99.90
2019-03-19T23:48:23.294Z,99.90
2019-03-19T23:50:53.507Z,99.90
2019-03-19T23:53:23.691Z,99.90
2019-03-19T23:55:53.852Z,99.90
2019-03-19T23:58:24.004Z,99.90
